Time;durP1;ratioP1;P1;durP2;ratioP2;P2;SDS_P1;SDS_P2;PMS_P1;PMS_P2;Temp;Humidity;BMP_temperature;BMP_pressure;BME280_temperature;BME280_humidity;BME280_pressure;Samples;Min_cycle;Max_cycle;Signal;HPM_P1;HPM_P2
2024/01/14 00:00:10;;;;;;;25.50;12.97;;;;;;;-3.29;100.00;100753.53;5067695;28;20048;-75
2024/01/14 00:02:38;;;;;;;28.40;13.80;;;;;;;-3.67;100.00;100719.53;5068066;28;20044;-84
2024/01/14 00:05:08;;;;;;;28.17;13.88;;;;;;;-3.95;100.00;100712.69;5064217;28;20168;-80
2024/01/14 00:07:33;;;;;;;29.92;15.35;;;;;;;-3.79;100.00;100757.06;5049174;28;20422;-79
2024/01/14 00:09:59;;;;;;;31.47;16.10;;;;;;;-4.16;100.00;100708.00;5082772;28;20048;-82
2024/01/14 00:12:27;;;;;;;30.50;14.83;;;;;;;-4.15;100.00;100743.50;5087600;28;20036;-82
2024/01/14 00:14:53;;;;;;;38.23;18.50;;;;;;;-4.26;100.00;100738.97;5087640;28;20075;-85
2024/01/14 00:17:18;;;;;;;41.27;22.50;;;;;;;-4.14;100.00;100741.84;5070296;28;20787;-77
2024/01/14 00:19:44;;;;;;;44.97;22.00;;;;;;;-4.17;100.00;100727.31;5087463;28;20101;-78
2024/01/14 00:22:10;;;;;;;44.77;21.17;;;;;;;-4.13;100.00;100739.47;5073364;28;20044;-80
2024/01/14 00:24:36;;;;;;;42.33;22.13;;;;;;;-4.91;100.00;100630.13;5074184;28;20553;-80
2024/01/14 00:27:02;;;;;;;48.17;25.20;;;;;;;-4.92;100.00;100637.50;5073192;28;20024;-79
2024/01/14 00:29:28;;;;;;;48.70;27.80;;;;;;;-4.22;100.00;100733.53;5072731;28;20028;-77
2024/01/14 00:31:53;;;;;;;54.33;29.00;;;;;;;-4.24;100.00;100732.47;5077730;28;20402;-78
2024/01/14 00:34:19;;;;;;;57.23;29.53;;;;;;;-4.29;100.00;100728.59;5074203;28;20032;-78
2024/01/14 00:36:44;;;;;;;53.30;29.03;;;;;;;-4.46;100.00;100697.56;5073933;28;20029;-76
2024/01/14 00:39:11;;;;;;;47.73;26.73;;;;;;;-4.79;100.00;100635.50;5078119;28;20025;-77
2024/01/14 00:41:36;;;;;;;50.73;25.83;;;;;;;-4.50;100.00;100703.03;5063639;28;20091;-80
2024/01/14 00:44:02;;;;;;;53.80;28.87;;;;;;;-4.26;100.00;100738.97;5069251;28;20114;-78
2024/01/14 00:46:28;;;;;;;46.13;25.27;;;;;;;-4.63;100.00;100654.69;5058850;28;20040;-77
2024/01/14 00:48:53;;;;;;;47.90;27.20;;;;;;;-4.32;100.00;100719.09;5073680;28;20028;-79
2024/01/14 00:51:19;;;;;;;50.90;26.00;;;;;;;-4.82;100.00;100615.06;5077462;28;20036;-85
2024/01/14 00:53:44;;;;;;;49.53;26.07;;;;;;;-4.23;100.00;100720.00;5071422;28;20036;-78
2024/01/14 00:56:11;;;;;;;48.90;26.13;;;;;;;-4.26;100.00;100699.56;5072556;28;20050;-79
2024/01/14 00:58:37;;;;;;;48.60;24.97;;;;;;;-4.57;100.00;100632.63;5072137;28;20504;-79
2024/01/14 01:01:03;;;;;;;43.73;23.40;;;;;;;-4.13;100.00;100706.69;5069533;28;20036;-79
2024/01/14 01:03:28;;;;;;;43.17;23.57;;;;;;;-4.40;100.00;100662.91;5071936;28;20059;-79
2024/01/14 01:05:54;;;;;;;45.53;24.57;;;;;;;-4.17;100.00;100706.25;5072282;28;20111;-82
2024/01/14 01:08:20;;;;;;;41.63;22.43;;;;;;;-4.48;100.00;100658.72;5073262;28;20071;-79
2024/01/14 01:10:45;;;;;;;42.37;22.37;;;;;;;-4.97;100.00;100570.69;5073889;28;20406;-79
2024/01/14 01:13:11;;;;;;;45.87;24.57;;;;;;;-4.72;100.00;100619.38;5073181;28;20112;-79
2024/01/14 01:15:37;;;;;;;39.67;22.60;;;;;;;-5.46;100.00;100484.50;5072301;28;20025;-79
2024/01/14 01:18:02;;;;;;;44.60;22.40;;;;;;;-4.73;100.00;100610.03;5090727;28;20040;-79
2024/01/14 01:20:28;;;;;;;39.77;22.97;;;;;;;-5.37;100.00;100512.22;5090509;28;20036;-80
2024/01/14 01:22:53;;;;;;;43.37;22.53;;;;;;;-4.89;100.00;100590.00;5090549;28;20063;-79
2024/01/14 01:25:19;;;;;;;48.07;24.13;;;;;;;-5.15;100.00;100529.50;5091106;28;20063;-79
2024/01/14 01:27:44;;;;;;;42.57;23.80;;;;;;;-4.61;100.00;100621.34;5092703;28;20088;-79
2024/01/14 01:30:10;;;;;;;48.27;24.67;;;;;;;-5.24;100.00;100506.81;5093173;28;20080;-79
2024/01/14 01:32:36;;;;;;;44.57;24.17;;;;;;;-4.27;100.00;100664.13;5074176;28;20189;-81
2024/01/14 01:35:02;;;;;;;45.63;24.20;;;;;;;-4.45;100.00;100606.13;5090529;28;20082;-84
2024/01/14 01:37:28;;;;;;;43.13;23.13;;;;;;;-4.18;100.00;100652.41;5073672;28;20036;-79
2024/01/14 01:39:53;;;;;;;49.70;23.47;;;;;;;-4.42;100.00;100611.44;5073521;28;20517;-79
2024/01/14 01:42:19;;;;;;;45.10;24.87;;;;;;;-4.27;100.00;100628.84;5090702;28;20028;-79
2024/01/14 01:44:44;;;;;;;46.63;24.37;;;;;;;-5.20;100.00;100472.03;5090234;28;20119;-80
2024/01/14 01:47:11;;;;;;;45.63;23.37;;;;;;;-4.15;100.00;100661.91;5073741;28;20036;-80
2024/01/14 01:49:37;;;;;;;48.90;22.87;;;;;;;-4.74;100.00;100576.41;5070865;28;20048;-80
2024/01/14 01:52:06;;;;;;;43.60;23.43;;;;;;;-4.85;100.00;100571.91;5072912;28;20073;-78
2024/01/14 01:54:37;;;;;;;45.20;23.87;;;;;;;-4.46;100.00;100652.22;5071476;28;20028;-79
2024/01/14 01:57:03;;;;;;;48.67;25.03;;;;;;;-4.53;100.00;100641.38;5071552;28;20058;-79
2024/01/14 01:59:29;;;;;;;46.07;23.90;;;;;;;-5.24;100.00;100512.72;5072875;28;20036;-80
2024/01/14 02:01:55;;;;;;;46.83;23.93;;;;;;;-4.54;100.00;100643.00;5071280;28;20036;-80
2024/01/14 02:04:21;;;;;;;43.90;22.30;;;;;;;-4.84;100.00;100606.44;5070976;28;20399;-80
2024/01/14 02:06:47;;;;;;;42.23;22.40;;;;;;;-4.92;100.00;100577.06;5070730;28;20032;-80
2024/01/14 02:09:13;;;;;;;42.23;23.83;;;;;;;-4.83;100.00;100593.13;5071294;28;20040;-80
2024/01/14 02:11:38;;;;;;;43.33;23.40;;;;;;;-5.70;100.00;100425.97;5071208;28;20029;-79
2024/01/14 02:14:05;;;;;;;42.17;23.53;;;;;;;-4.89;100.00;100559.78;5066399;28;20029;-80
2024/01/14 02:16:30;;;;;;;41.90;22.20;;;;;;;-4.69;100.00;100579.38;5067430;28;20082;-81
2024/01/14 02:18:56;;;;;;;40.40;21.97;;;;;;;-4.64;100.00;100595.84;5058603;28;20032;-80
2024/01/14 02:21:32;;;;;;;41.60;21.73;;;;;;;-5.04;100.00;100526.41;5087936;28;20143;-82
2024/01/14 02:24:17;;;;;;;41.10;22.80;;;;;;;-4.58;100.00;100585.47;5070856;28;20146;-80
2024/01/14 02:26:42;;;;;;;45.00;22.30;;;;;;;-4.57;100.00;100572.16;5072266;28;20031;-79
2024/01/14 02:29:09;;;;;;;45.40;24.43;;;;;;;-4.68;100.00;100548.41;5068523;28;20017;-79
2024/01/14 02:31:34;;;;;;;48.93;25.77;;;;;;;-4.40;100.00;100589.81;5070473;28;20036;-80
2024/01/14 02:34:00;;;;;;;48.43;25.17;;;;;;;-4.48;100.00;100572.16;5070755;28;20407;-80
2024/01/14 02:36:26;;;;;;;47.93;24.60;;;;;;;-4.28;100.00;100596.78;5070745;28;20030;-79
2024/01/14 02:38:51;;;;;;;48.50;26.03;;;;;;;-4.90;100.00;100510.16;5070618;28;20115;-79
2024/01/14 02:41:17;;;;;;;47.13;25.17;;;;;;;-4.21;100.00;100601.69;5070340;28;20055;-80
2024/01/14 02:43:42;;;;;;;48.43;25.63;;;;;;;-4.49;100.00;100557.78;5070260;28;20029;-80
2024/01/14 02:46:08;;;;;;;46.00;25.60;;;;;;;-4.17;100.00;100595.34;5086396;28;20068;-78
2024/01/14 02:48:33;;;;;;;47.23;25.07;;;;;;;-4.63;100.00;100537.16;5070366;28;20079;-80
2024/01/14 02:50:59;;;;;;;47.47;26.27;;;;;;;-4.78;100.00;100525.59;5070212;28;20036;-79
2024/01/14 02:53:24;;;;;;;44.67;24.80;;;;;;;-4.64;100.00;100535.38;5070265;28;20111;-79
2024/01/14 02:55:50;;;;;;;45.23;25.03;;;;;;;-4.32;100.00;100587.16;5070283;28;20560;-80
2024/01/14 02:58:16;;;;;;;44.03;25.47;;;;;;;-4.47;100.00;100544.59;5071870;28;20141;-80
2024/01/14 03:00:41;;;;;;;45.43;25.23;;;;;;;-4.29;100.00;100574.84;5069892;28;20036;-79
2024/01/14 03:03:07;;;;;;;48.23;25.93;;;;;;;-4.40;100.00;100546.06;5069978;28;20467;-81
2024/01/14 03:05:32;;;;;;;47.73;25.30;;;;;;;-4.52;100.00;100525.63;5070050;28;20094;-79
2024/01/14 03:07:58;;;;;;;46.17;25.33;;;;;;;-4.09;100.00;100584.34;5070067;28;20036;-80
2024/01/14 03:10:23;;;;;;;48.93;25.13;;;;;;;-5.13;100.00;100399.66;5070077;28;20036;-79
2024/01/14 03:12:49;;;;;;;42.27;24.37;;;;;;;-4.40;100.00;100529.34;5069879;28;20522;-79
2024/01/14 03:15:15;;;;;;;48.80;26.03;;;;;;;-4.67;100.00;100488.84;5050111;28;20032;-80
2024/01/14 03:17:40;;;;;;;47.40;26.23;;;;;;;-4.42;100.00;100532.44;5049866;28;20095;-80
2024/01/14 03:20:07;;;;;;;45.87;24.80;;;;;;;-4.55;100.00;100522.78;5049661;28;20029;-81
2024/01/14 03:22:32;;;;;;;44.00;24.30;;;;;;;-5.31;100.00;100392.03;5051353;28;20040;-83
2024/01/14 03:24:58;;;;;;;47.27;24.83;;;;;;;-4.74;100.00;100495.78;5066254;28;20025;-80
2024/01/14 03:27:24;;;;;;;43.50;23.73;;;;;;;-4.58;100.00;100505.75;5066330;28;20040;-85
2024/01/14 03:29:50;;;;;;;42.87;23.80;;;;;;;-4.40;100.00;100521.78;5049395;28;20060;-81
2024/01/14 03:32:15;;;;;;;41.33;23.67;;;;;;;-4.06;100.00;100583.00;5049635;28;20075;-84
2024/01/14 03:34:41;;;;;;;41.33;23.00;;;;;;;-4.26;100.00;100550.81;5050706;28;20040;-80
2024/01/14 03:37:06;;;;;;;44.57;24.97;;;;;;;-4.69;100.00;100488.69;5048037;28;20098;-80
2024/01/14 03:39:32;;;;;;;43.80;23.80;;;;;;;-4.56;100.00;100501.75;5031154;28;20049;-78
2024/01/14 03:41:57;;;;;;;45.03;24.93;;;;;;;-4.47;99.92;100503.41;5048620;28;20051;-80
2024/01/14 03:44:23;;;;;;;41.23;24.47;;;;;;;-4.29;99.59;100524.44;5047977;28;20037;-79
2024/01/14 03:46:48;;;;;;;45.13;24.30;;;;;;;-4.59;99.54;100472.84;5050880;28;20045;-85
2024/01/14 03:49:14;;;;;;;43.10;23.50;;;;;;;-4.14;99.24;100553.63;5047874;28;20469;-80
2024/01/14 03:51:41;;;;;;;41.37;24.30;;;;;;;-4.58;99.42;100475.50;5048917;28;20048;-80
2024/01/14 03:54:06;;;;;;;39.90;22.70;;;;;;;-4.48;98.82;100531.84;5030981;28;20033;-85
2024/01/14 03:56:32;;;;;;;49.70;23.53;;;;;;;-4.22;99.41;100569.66;5047427;28;20041;-80
2024/01/14 03:58:57;;;;;;;47.27;24.13;;;;;;;-4.79;99.56;100486.03;5047340;28;20029;-80
2024/01/14 04:01:23;;;;;;;44.10;23.97;;;;;;;-4.42;100.00;100557.66;5031173;28;20036;-80
2024/01/14 04:03:49;;;;;;;43.90;22.57;;;;;;;-4.76;100.00;100512.41;5047771;28;20072;-80
2024/01/14 04:06:18;;;;;;;42.37;24.40;;;;;;;-4.61;100.00;100554.94;5031087;28;20025;-79
2024/01/14 04:08:43;;;;;;;46.03;24.55;;;;;;;-5.40;100.00;100409.63;5043937;28;20120;-80
2024/01/14 04:11:09;;;;;;;47.40;24.07;;;;;;;-4.80;100.00;100520.38;5049025;28;20167;-79
2024/01/14 04:13:35;;;;;;;45.73;22.80;;;;;;;-5.57;100.00;100420.56;5048556;28;20037;-80
2024/01/14 04:16:00;;;;;;;41.53;23.80;;;;;;;-4.99;100.00;100550.41;5050374;28;20036;-80
2024/01/14 04:18:26;;;;;;;42.60;22.63;;;;;;;-5.39;100.00;100498.59;5048812;28;20033;-80
2024/01/14 04:20:51;;;;;;;49.50;23.83;;;;;;;-5.59;100.00;100486.53;5048841;28;20032;-80
2024/01/14 04:23:17;;;;;;;45.97;23.37;;;;;;;-5.32;100.00;100525.25;5048875;28;20025;-80
2024/01/14 04:25:42;;;;;;;48.27;25.37;;;;;;;-5.40;100.00;100510.28;5048901;28;20037;-80
2024/01/14 04:28:08;;;;;;;53.60;24.67;;;;;;;-5.34;100.00;100541.84;5049837;28;20055;-82
2024/01/14 04:30:33;;;;;;;42.57;22.87;;;;;;;-5.99;100.00;100442.28;5049042;28;20066;-80
2024/01/14 04:32:59;;;;;;;41.77;23.00;;;;;;;-5.65;100.00;100513.59;5048569;28;20503;-80
2024/01/14 04:35:24;;;;;;;45.03;22.60;;;;;;;-5.97;100.00;100491.94;5048748;28;20029;-79
2024/01/14 04:37:50;;;;;;;44.77;22.53;;;;;;;-5.33;100.00;100571.28;5050657;28;20578;-80
2024/01/14 04:40:18;;;;;;;45.77;23.60;;;;;;;-5.33;100.00;100538.56;5050495;28;20053;-79
2024/01/14 04:42:43;;;;;;;45.50;23.07;;;;;;;-5.60;100.00;100498.22;5049242;28;20029;-80
2024/01/14 04:45:09;;;;;;;43.23;22.50;;;;;;;-5.86;100.00;100480.47;5048784;28;20067;-78
2024/01/14 04:47:35;;;;;;;46.20;23.37;;;;;;;-6.67;100.00;100356.81;5048640;28;20025;-79
2024/01/14 04:50:00;;;;;;;40.97;22.40;;;;;;;-5.79;100.00;100510.56;5048693;28;20468;-79
2024/01/14 04:52:26;;;;;;;45.87;24.07;;;;;;;-5.77;100.00;100509.09;5048601;28;20029;-83
2024/01/14 04:54:51;;;;;;;42.33;22.00;;;;;;;-5.49;100.00;100563.84;5048535;28;20033;-79
2024/01/14 04:57:17;;;;;;;42.93;22.57;;;;;;;-5.82;100.00;100486.72;5048226;28;20029;-81
2024/01/14 04:59:42;;;;;;;42.70;22.97;;;;;;;-5.37;100.00;100568.47;5048639;28;20501;-80
2024/01/14 05:02:08;;;;;;;41.37;22.00;;;;;;;-6.01;100.00;100447.16;5063457;28;20491;-82
2024/01/14 05:04:33;;;;;;;42.80;22.37;;;;;;;-5.22;100.00;100574.16;5068377;28;20032;-80
2024/01/14 05:06:59;;;;;;;48.77;22.87;;;;;;;-6.03;100.00;100426.00;5068652;28;20055;-84
2024/01/14 05:09:25;;;;;;;41.80;23.33;;;;;;;-5.63;100.00;100507.06;5072515;28;20536;-79
2024/01/14 05:11:50;;;;;;;39.43;21.53;;;;;;;-5.93;100.00;100437.84;5071831;28;20024;-80
2024/01/14 05:14:16;;;;;;;44.00;22.17;;;;;;;-6.28;100.00;100374.88;5073591;28;20035;-80
2024/01/14 05:16:42;;;;;;;37.03;21.20;;;;;;;-5.31;100.00;100549.69;5072122;28;20016;-80
2024/01/14 05:19:07;;;;;;;44.10;20.83;;;;;;;-5.42;100.00;100525.97;5072136;28;20054;-82
2024/01/14 05:21:33;;;;;;;45.00;21.50;;;;;;;-5.68;100.00;100487.38;5071313;28;20119;-79
2024/01/14 05:23:58;;;;;;;39.47;19.93;;;;;;;-5.31;100.00;100568.19;5071834;28;20060;-79
2024/01/14 05:26:24;;;;;;;39.63;20.73;;;;;;;-5.64;100.00;100513.75;5071899;28;20064;-80
2024/01/14 05:28:50;;;;;;;34.30;18.83;;;;;;;-6.41;100.00;100395.34;5072246;28;20409;-79
2024/01/14 05:31:16;;;;;;;40.77;20.70;;;;;;;-5.68;100.00;100535.16;5072171;28;20024;-79
2024/01/14 05:33:42;;;;;;;34.60;20.03;;;;;;;-5.77;100.00;100541.78;5071873;28;20467;-80
2024/01/14 05:36:07;;;;;;;40.13;20.07;;;;;;;-6.54;100.00;100425.84;5071888;28;20048;-83
2024/01/14 05:38:33;;;;;;;37.20;19.40;;;;;;;-6.18;100.00;100488.16;5071846;28;20020;-79
2024/01/14 05:40:58;;;;;;;37.37;19.37;;;;;;;-6.38;100.00;100461.88;5067030;28;20056;-80
2024/01/14 05:43:24;;;;;;;32.27;17.03;;;;;;;-6.14;100.00;100507.84;5071230;28;20032;-79
2024/01/14 05:45:50;;;;;;;36.17;19.33;;;;;;;-6.49;100.00;100444.81;5072712;28;20028;-79
2024/01/14 05:48:15;;;;;;;36.53;18.90;;;;;;;-5.97;100.00;100539.72;5071460;28;20040;-79
2024/01/14 05:50:41;;;;;;;73.87;32.43;;;;;;;-6.25;100.00;100483.25;5071445;28;20031;-76
2024/01/14 05:53:06;;;;;;;54.20;27.73;;;;;;;-5.89;100.00;100540.53;5071278;28;20028;-79
2024/01/14 05:55:32;;;;;;;40.37;21.20;;;;;;;-6.09;100.00;100519.28;5070093;28;20094;-75
2024/01/14 05:57:57;;;;;;;39.87;19.60;;;;;;;-6.15;100.00;100518.63;5072270;28;20029;-77
2024/01/14 06:00:23;;;;;;;41.80;20.63;;;;;;;-6.00;100.00;100549.50;5072322;28;20028;-81
2024/01/14 06:02:49;;;;;;;39.10;20.53;;;;;;;-6.14;100.00;100512.88;5069239;28;20036;-77
2024/01/14 06:05:15;;;;;;;39.30;19.17;;;;;;;-6.41;100.00;100483.28;5069575;28;20128;-78
2024/01/14 06:07:41;;;;;;;38.70;21.00;;;;;;;-6.17;100.00;100547.72;5052577;28;20136;-78
2024/01/14 06:10:08;;;;;;;37.83;19.73;;;;;;;-6.15;100.00;100550.44;5052431;28;20021;-81
2024/01/14 06:12:33;;;;;;;40.33;20.60;;;;;;;-6.22;100.00;100539.72;5069022;28;20059;-79
2024/01/14 06:14:59;;;;;;;40.33;18.77;;;;;;;-6.91;100.00;100437.06;5052641;28;20169;-78
2024/01/14 06:17:24;;;;;;;42.73;20.90;;;;;;;-6.43;100.00;100528.34;5069154;28;20029;-78
2024/01/14 06:19:50;;;;;;;38.47;19.67;;;;;;;-6.39;100.00;100535.44;5067928;28;20071;-81
2024/01/14 06:22:15;;;;;;;36.30;19.17;;;;;;;-6.37;100.00;100549.06;5068858;28;20066;-79
2024/01/14 06:24:43;;;;;;;43.50;20.93;;;;;;;-6.79;100.00;100487.66;5035263;28;20040;-78
2024/01/14 06:27:08;;;;;;;42.80;20.43;;;;;;;-7.22;100.00;100397.06;5069070;28;20077;-78
2024/01/14 06:29:34;;;;;;;46.60;21.77;;;;;;;-6.88;100.00;100443.31;5069276;28;20127;-79
2024/01/14 06:31:59;;;;;;;39.23;20.97;;;;;;;-6.27;100.00;100550.03;5051851;28;20465;-78
2024/01/14 06:34:25;;;;;;;38.00;20.77;;;;;;;-6.45;100.00;100512.19;5064906;28;20040;-79
2024/01/14 06:36:51;;;;;;;39.23;20.53;;;;;;;-6.66;100.00;100479.06;5071677;28;20028;-80
2024/01/14 06:39:17;;;;;;;38.80;19.50;;;;;;;-6.18;100.00;100556.91;5069727;28;20522;-82
2024/01/14 06:41:42;;;;;;;36.07;19.40;;;;;;;-6.14;100.00;100535.50;5070131;28;20136;-79
2024/01/14 06:44:08;;;;;;;42.53;20.67;;;;;;;-6.03;100.00;100552.59;5070095;28;20029;-80
2024/01/14 06:46:34;;;;;;;41.90;20.13;;;;;;;-6.12;100.00;100523.09;5070031;28;20027;-78
2024/01/14 06:48:59;;;;;;;43.50;21.97;;;;;;;-6.03;100.00;100544.13;5069789;28;20028;-78
2024/01/14 06:51:25;;;;;;;43.17;21.10;;;;;;;-6.12;100.00;100511.41;5071191;28;20032;-81
2024/01/14 06:53:50;;;;;;;43.27;20.43;;;;;;;-5.81;100.00;100538.78;5070729;28;20450;-80
2024/01/14 06:56:16;;;;;;;43.37;21.83;;;;;;;-5.89;100.00;100517.91;5069667;28;20024;-80
2024/01/14 06:58:42;;;;;;;40.30;21.97;;;;;;;-5.58;100.00;100561.25;5069840;28;20028;-79
2024/01/14 07:01:07;;;;;;;41.60;21.80;;;;;;;-5.87;100.00;100504.75;5070791;28;20020;-79
2024/01/14 07:03:33;;;;;;;49.07;24.00;;;;;;;-5.47;100.00;100558.22;5069419;28;20039;-80
2024/01/14 07:05:59;;;;;;;45.30;21.43;;;;;;;-5.52;100.00;100534.19;5069690;28;20025;-80
2024/01/14 07:08:25;;;;;;;45.07;24.27;;;;;;;-5.27;100.00;100565.28;5069439;28;20463;-79
2024/01/14 07:10:50;;;;;;;45.93;23.80;;;;;;;-5.13;100.00;100550.69;5069344;28;20032;-80
2024/01/14 07:13:17;;;;;;;40.10;20.63;;;;;;;-5.31;100.00;100492.69;5069395;28;20040;-80
2024/01/14 07:15:42;;;;;;;44.10;24.07;;;;;;;-5.60;100.00;100412.69;5070796;28;20055;-79
2024/01/14 07:18:08;;;;;;;41.80;23.20;;;;;;;-5.29;100.00;100456.00;5070746;28;20509;-78
2024/01/14 07:20:33;;;;;;;48.40;22.07;;;;;;;-4.64;100.00;100547.97;5069123;28;20059;-79
2024/01/14 07:22:59;;;;;;;46.27;22.30;;;;;;;-4.62;100.00;100528.00;5068748;28;20032;-78
2024/01/14 07:25:26;;;;;;;41.07;20.77;;;;;;;-4.46;100.00;100553.94;5070668;28;20032;-79
2024/01/14 07:27:51;;;;;;;43.80;22.40;;;;;;;-4.32;100.00;100541.78;5070358;28;20033;-80
2024/01/14 07:30:18;;;;;;;39.23;20.93;;;;;;;-4.45;100.00;100525.47;5069173;28;20040;-79
2024/01/14 07:32:45;;;;;;;40.13;20.43;;;;;;;-4.19;100.00;100548.91;5069450;28;20032;-78
2024/01/14 07:35:11;;;;;;;42.37;22.50;;;;;;;-4.07;100.00;100533.31;5071219;28;20455;-79
2024/01/14 07:37:37;;;;;;;44.30;21.87;;;;;;;-4.28;100.00;100460.69;5071218;28;20052;-82
2024/01/14 07:40:04;;;;;;;43.70;22.37;;;;;;;-3.84;100.00;100501.81;5069236;28;20091;-84
2024/01/14 07:42:30;;;;;;;40.70;20.97;;;;;;;-3.74;100.00;100480.88;5069345;28;20031;-80
2024/01/14 07:44:56;;;;;;;44.20;22.47;;;;;;;-3.87;100.00;100425.88;5069590;28;20024;-80
2024/01/14 07:47:22;;;;;;;37.57;20.40;;;;;;;-3.80;100.00;100404.63;5069576;28;20131;-80
2024/01/14 07:50:08;;;;;;;40.97;20.50;;;;;;;-3.96;100.00;100365.38;5052692;28;20036;-80
2024/01/14 07:52:33;;;;;;;35.37;19.73;;;;;;;-3.27;100.00;100458.28;5047918;28;20068;-80
2024/01/14 07:55:00;;;;;;;36.53;19.03;;;;;;;-4.12;100.00;100286.56;5048137;28;20075;-80
2024/01/14 07:57:25;;;;;;;38.07;18.57;;;;;;;-3.03;100.00;100448.63;5048046;28;20036;-83
2024/01/14 07:59:51;;;;;;;38.00;19.20;;;;;;;-2.94;100.00;100454.50;5031360;28;20032;-82
2024/01/14 08:02:18;;;;;;;57.13;26.83;;;;;;;-2.88;100.00;100447.47;5048130;28;20048;-80
2024/01/14 08:04:44;;;;;;;39.07;19.33;;;;;;;-2.69;100.00;100466.81;5047972;28;20033;-81
2024/01/14 08:07:10;;;;;;;38.23;20.93;;;;;;;-2.35;100.00;100512.81;5047820;28;20087;-81
2024/01/14 08:09:35;;;;;;;40.83;20.60;;;;;;;-2.46;100.00;100486.56;5048001;28;20033;-82
2024/01/14 08:12:03;;;;;;;39.43;18.93;;;;;;;-2.52;100.00;100470.84;5046108;28;20060;-79
2024/01/14 08:14:28;;;;;;;33.37;18.90;;;;;;;-2.52;100.00;100456.56;5047930;28;20115;-81
2024/01/14 08:16:54;;;;;;;37.67;18.80;;;;;;;-3.03;100.00;100362.75;5031110;28;20931;-81
2024/01/14 08:19:20;;;;;;;37.70;18.60;;;;;;;-2.44;100.00;100425.28;5047567;28;20052;-81
2024/01/14 08:21:47;;;;;;;38.23;19.60;;;;;;;-1.99;100.00;100459.50;5047797;28;20053;-81
2024/01/14 08:24:12;;;;;;;36.60;16.70;;;;;;;-2.18;100.00;100443.47;5064143;28;20402;-81
2024/01/14 08:26:47;;;;;;;37.77;18.03;;;;;;;-1.88;100.00;100446.88;5070430;28;20027;-81
2024/01/14 08:29:13;;;;;;;30.40;17.03;;;;;;;-1.67;100.00;100471.50;5069014;28;20482;-80
2024/01/14 08:31:40;;;;;;;34.90;18.63;;;;;;;-1.39;100.00;100480.56;5067541;28;20065;-81
2024/01/14 08:34:07;;;;;;;33.30;17.97;;;;;;;-1.35;100.00;100480.06;5067414;28;20048;-81
2024/01/14 08:36:32;;;;;;;32.60;17.17;;;;;;;-1.44;100.00;100453.97;5067808;28;20043;-84
2024/01/14 08:38:58;;;;;;;36.60;19.53;;;;;;;-1.76;100.00;100386.31;5068013;28;20032;-81
2024/01/14 08:41:24;;;;;;;32.57;18.20;;;;;;;-1.00;100.00;100502.41;5050354;28;20411;-80
2024/01/14 08:43:50;;;;;;;32.80;17.00;;;;;;;-1.79;100.00;100389.47;5064543;28;20032;-82
2024/01/14 08:46:16;;;;;;;31.93;17.80;;;;;;;-1.52;100.00;100415.31;5071771;28;20640;-85
2024/01/14 08:48:45;;;;;;;37.40;18.60;;;;;;;-1.64;100.00;100407.59;5054549;28;20123;-82
2024/01/14 08:51:12;;;;;;;43.80;25.50;;;;;;;-1.66;100.00;100386.31;5054760;28;20032;-84
2024/01/14 08:53:38;;;;;;;36.87;20.57;;;;;;;-1.90;100.00;100322.78;5071670;28;20407;-81
2024/01/14 08:56:04;;;;;;;33.43;17.93;;;;;;;-0.69;100.00;100484.66;5054711;28;20039;-82
2024/01/14 08:58:29;;;;;;;33.53;17.80;;;;;;;-1.29;100.00;100359.00;5038160;28;20055;-84
2024/01/14 09:00:55;;;;;;;33.63;17.33;;;;;;;-0.86;100.00;100413.19;5054489;28;20029;-81
2024/01/14 09:03:21;;;;;;;34.20;16.97;;;;;;;-0.72;100.00;100421.91;5084720;28;20040;-80
2024/01/14 09:05:48;;;;;;;32.30;17.60;;;;;;;-1.16;100.00;100327.97;5072566;28;20498;-80
2024/01/14 09:08:13;;;;;;;34.23;18.47;;;;;;;-0.87;97.15;100343.00;5091192;28;20044;-81
2024/01/14 09:10:43;;;;;;;32.37;17.43;;;;;;;-0.25;95.48;100416.34;5074266;28;20036;-80
2024/01/14 09:13:08;;;;;;;;;;;;;;;-0.05;95.88;100429.69;5074653;28;20043;-79
2024/01/14 09:15:34;;;;;;;39.13;16.73;;;;;;;-0.13;94.32;100398.66;5074175;28;19912;-81
2024/01/14 09:18:01;;;;;;;30.00;15.90;;;;;;;0.17;93.90;100424.66;5091283;28;20181;-78
2024/01/14 09:20:26;;;;;;;32.00;17.67;;;;;;;0.24;93.34;100413.34;5091300;28;20536;-78
2024/01/14 09:22:52;;;;;;;34.05;15.82;;;;;;;0.00;93.30;100347.22;5091260;28;20032;-80
2024/01/14 09:25:17;;;;;;;34.47;18.37;;;;;;;-0.16;91.57;100304.56;5088891;28;20036;-76
2024/01/14 09:27:43;;;;;;;30.02;16.00;;;;;;;0.58;89.96;100408.28;5090997;28;20059;-75
2024/01/14 09:30:32;;;;;;;30.38;17.20;;;;;;;0.45;90.93;100374.34;5090398;28;20039;-79
2024/01/14 09:32:58;;;;;;;26.15;14.52;;;;;;;0.24;87.96;100338.03;5070234;28;20047;-73
2024/01/14 09:35:23;;;;;;;27.85;15.55;;;;;;;0.56;89.48;100394.56;5088840;28;20035;-75
2024/01/14 09:37:50;;;;;;;27.05;15.52;;;;;;;0.66;89.62;100396.16;5090434;28;20040;-82
2024/01/14 09:40:18;;;;;;;30.10;16.48;;;;;;;0.55;89.44;100347.97;5090044;28;20434;-73
2024/01/14 09:42:45;;;;;;;25.42;14.43;;;;;;;0.91;88.18;100392.16;5069588;28;20036;-75
2024/01/14 09:45:10;;;;;;;28.58;14.32;;;;;;;1.04;88.14;100381.22;5085551;28;20044;-75
2024/01/14 09:47:37;;;;;;;27.58;15.95;;;;;;;0.94;89.23;100355.91;5090668;28;20441;-73
2024/01/14 09:50:04;;;;;;;28.13;14.90;;;;;;;0.92;88.83;100347.28;5049667;28;20072;-77
2024/01/14 09:52:34;;;;;;;43.33;24.77;;;;;;;0.81;89.25;100338.88;5029813;28;20060;-79
2024/01/14 09:55:00;;;;;;;28.75;15.23;;;;;;;0.80;88.96;100332.88;5028788;28;20041;-78
2024/01/14 09:57:29;;;;;;;26.38;14.10;;;;;;;1.28;88.82;100371.06;5029428;28;20111;-78
2024/01/14 09:59:55;;;;;;;33.67;18.00;;;;;;;0.82;87.07;100299.09;5030190;28;20052;-78
2024/01/14 10:02:22;;;;;;;25.10;15.23;;;;;;;0.74;86.04;100256.22;5029459;28;20276;-78
2024/01/14 10:04:48;;;;;;;25.25;14.55;;;;;;;0.96;86.54;100262.84;5029664;28;20045;-79
2024/01/14 10:07:14;;;;;;;27.55;15.02;;;;;;;1.36;85.81;100308.03;5013254;28;20455;-77
2024/01/14 10:09:42;;;;;;;74.03;36.08;;;;;;;1.36;85.52;100293.66;5029501;28;20080;-79
2024/01/14 10:12:08;;;;;;;97.10;50.45;;;;;;;1.60;85.48;100326.69;5029246;28;20140;-80
2024/01/14 10:14:35;;;;;;;41.17;24.25;;;;;;;1.67;86.73;100322.91;5029232;28;20036;-78
2024/01/14 10:17:01;;;;;;;24.38;13.77;;;;;;;1.34;85.19;100207.84;5029802;28;20482;-75
2024/01/14 10:19:26;;;;;;;26.23;14.38;;;;;;;1.97;83.90;100283.44;5029615;28;20083;-77
2024/01/14 10:21:54;;;;;;;26.95;14.18;;;;;;;1.50;84.29;100176.72;5063288;28;20045;-80
2024/01/14 10:24:21;;;;;;;26.90;15.20;;;;;;;2.36;83.20;100294.53;5071225;28;20430;-83
2024/01/14 10:26:51;;;;;;;27.48;15.45;;;;;;;2.49;83.59;100296.22;5071708;28;20025;-78
2024/01/14 10:29:17;;;;;;;28.35;16.52;;;;;;;2.42;82.78;100255.88;5072058;28;20036;-86
2024/01/14 10:31:43;;;;;;;27.35;14.85;;;;;;;2.54;83.09;100258.31;5070295;28;20032;-84
2024/01/14 10:34:09;;;;;;;32.95;17.52;;;;;;;2.22;83.32;100195.97;5071703;28;20024;-78
2024/01/14 10:36:36;;;;;;;24.27;14.52;;;;;;;1.28;81.99;100003.22;5071758;28;20062;-80
2024/01/14 10:39:10;;;;;;;26.30;14.15;;;;;;;1.86;82.19;100096.88;5069906;28;20024;-79
2024/01/14 10:41:35;;;;;;;25.75;15.70;;;;;;;2.42;81.18;100159.91;5071558;28;20033;-78
2024/01/14 10:44:01;;;;;;;20.95;11.38;;;;;;;2.92;81.22;100236.97;5071409;28;20031;-78
2024/01/14 10:46:32;;;;;;;28.00;16.17;;;;;;;2.68;80.74;100176.00;5070206;28;20109;-77
2024/01/14 10:49:08;;;;;;;26.75;15.15;;;;;;;3.10;81.91;100267.84;5071749;28;20111;-79
2024/01/14 10:51:42;;;;;;;25.92;14.50;;;;;;;2.91;80.82;100215.69;5086498;28;20028;-79
2024/01/14 10:54:12;;;;;;;25.52;14.57;;;;;;;3.29;80.54;100256.25;5070681;28;20039;-77
2024/01/14 10:56:42;;;;;;;23.05;14.13;;;;;;;3.37;80.19;100262.75;5071278;28;20040;-79
2024/01/14 10:59:08;;;;;;;;;;;;;;;3.54;80.18;100257.00;5071718;28;20031;-77